DRI-NNSC Building Weather observations

Data are for 10 minute period ending at time listed.
 Day   Time   Solar   Ave.   Ave.  Ave.  Vector  Max.   Baro.   Total    
  of    of     Rad.   Air    Rel.  Wind   Wind   Wind  Press.  Precip.   
Year   Day            Temp.  Hum.  Speed  Dir.   Gust                    
2014   (PST)  Kw/m2    F      %     mph   deg.    mph    mb.     in.     
-------------------------------------------------------------------------
 293    1:30   0.00   57.7    32    2.5   122      4   846.0    0.00 
 293    1:40   0.00   55.5    35    0.4   255      1   846.0    0.00 
 293    1:50   0.00   55.4    35    2.3   320      5   846.0    0.00 
 293    2:00   0.00   55.2    36    2.0   321      5   846.0    0.00 
 293    2:10   0.00   56.1    34    4.1   315      7   846.0    0.00 
 293    2:20   0.00   56.7    33    4.7   315      8   845.9    0.00 
 293    2:30   0.00   57.4    32    3.8   307      7   845.8    0.00 
 293    2:40   0.00   56.3    33    2.7   311      6   845.9    0.00 
 293    2:50   0.00   55.3    34    3.7     9      6   845.9    0.00 
 293    3:00   0.00   56.4    33    2.6   331      5   845.9    0.00 
 293    3:10   0.00   54.7    35    1.4   180      4   846.0    0.00 
 293    3:20   0.00   54.2    36    2.7    54      6   846.0    0.00 
 293    3:30   0.00   53.6    37    4.8    64      6   846.0    0.00 
 293    3:40   0.00   54.7    36    3.7    59      6   845.9    0.00 
 293    3:50   0.00   55.5    34    3.6    64      4   846.0    0.00 
 293    4:00   0.00   55.8    34    3.7    73      5   846.0    0.00 
 293    4:10   0.00   56.2    34    2.9    77      6   846.0    0.00 
 293    4:20   0.00   56.5    34    2.7    61      4   845.9    0.00 
 293    4:30   0.00   54.6    36    2.0    38      3   845.8    0.00 
 293    4:40   0.00   54.8    36    2.1    48      3   845.8    0.00 
 293    4:50   0.00   55.0    36    2.2    57      4   845.7    0.00 
 293    5:00   0.00   54.7    36    3.0    54      5   845.7    0.00 
 293    5:10   0.00   54.0    37    3.6    52      5   845.8    0.00 
 293    5:20   0.00   54.0    37    3.9    48      5   845.8    0.00 
 293    5:30   0.00   53.8    36    2.6   344      3   845.8    0.00 
 293    5:40   0.00   54.6    33    3.2   347      5   845.7    0.00 
 293    5:50   0.00   54.9    33    1.9   156      7   845.7    0.00 
 293    6:00   0.00   52.1    38    2.8    90      6   845.6    0.00 
 293    6:10   0.00   52.6    37    3.5    48      6   845.5    0.00 
 293    6:20   0.00   51.5    39    1.3   293      4   845.5    0.00 
 293    6:30   0.01   52.2    36    0.4   325      2   845.6    0.00 
 293    6:40   0.03   53.4    35    1.8   322      4   845.7    0.00 
 293    6:50   0.06   53.2    36    1.8    40      5   845.6    0.00 
 293    7:00   0.09   53.4    36    2.8    34      4   845.6    0.00 
 293    7:10   0.11   55.0    34    2.2   330      3   845.7    0.00 
 293    7:20   0.15   56.2    32    1.1   309      3   845.9    0.00 
 293    7:30   0.18   57.6    31    1.0   146      4   846.0    0.00 
 293    7:40   0.21   58.6    30    1.5   121      3   846.0    0.00 
 293    7:50   0.19   58.5    31    2.1    64      4   846.1    0.00 
 293    8:00   0.18   57.9    31    1.8    74      3   846.1    0.00 
 293    8:10   0.28   59.0    29    1.7   214      4   846.2    0.00 
 293    8:20   0.32   59.6    30    2.4   197      6   846.2    0.00 
 293    8:30   0.34   60.7    29    3.8   198      8   846.3    0.00 
 293    8:40   0.36   61.7    29    4.4   207      9   846.3    0.00 
 293    8:50   0.39   62.2    30    6.0   216     15   846.3    0.00 
 293    9:00   0.41   62.7    29    9.8   227     21   846.3    0.00 
 293    9:10   0.43   63.0    29    9.9   222     23   846.3    0.00 
 293    9:20   0.46   63.4    28    9.5   233     20   846.3    0.00 
 293    9:30   0.48   63.9    28   11.6   226     20   846.2    0.00 
 293    9:40   0.50   64.7    26    9.2   234     20   846.1    0.00 
 293    9:50   0.52   65.2    25    6.6   227     15   846.1    0.00 
 293   10:00   0.55   66.7    24    7.0   172     15   846.0    0.00 
 293   10:10   0.57   66.4    24    6.6   162     14   846.0    0.00 
 293   10:20   0.58   66.9    24    8.0   173     17   845.9    0.00 
 293   10:30   0.61   67.5    23    7.8   193     16   845.9    0.00 
 293   10:40   0.63   67.0    23    9.8   210     19   845.8    0.00 
 293   10:50   0.62   67.4    22   12.2   197     22   845.6    0.00 
 293   11:00   0.62   67.8    21   13.2   196     24   845.5    0.00 
 293   11:10   0.63   68.1    22   13.7   189     28   845.3    0.00 
 293   11:20   0.64   68.1    22   13.6   193     26   845.2    0.00 
 293   11:30   0.64   67.6    22   14.4   201     28   845.2    0.00 
 293   11:40   0.64   68.1    22   13.4   202     24   845.2    0.00 
 293   11:50   0.64   68.8    22   10.2   204     22   845.1    0.00 
 293   12:00   0.64   68.8    22    9.3   220     21   845.0    0.00 
 293   12:10   0.59   68.5    23   11.3   213     23   844.8    0.00 
 293   12:20   0.64   68.8    23   11.6   206     22   844.7    0.00 
 293   12:30   0.60   68.1    23   11.2   212     20   844.5    0.00 
 293   12:40   0.61   68.0    23   12.9   228     22   844.5    0.00 
 293   12:50   0.62   67.6    24   14.9   224     24   844.4    0.00 
 293   13:00   0.61   67.7    23   15.0   224     25   844.4    0.00 
 293   13:10   0.60   67.4    24   17.0   225     28   844.4    0.00 
 293   13:20   0.58   67.5    24   14.1   240     28   844.3    0.00 
 293   13:30   0.57   67.3    24   13.5   240     26   844.3    0.00 
 293   13:40   0.42   66.7    25   14.9   239     29   844.3    0.00 
 293   13:50   0.52   66.5    26   14.7   241     28   844.3    0.00 
 293   14:00   0.49   66.5    25   15.3   239     26   844.3    0.00 
 293   14:10   0.44   66.2    26   15.8   234     30   844.3    0.00 
 293   14:20   0.43   66.0    26   17.8   224     29   844.3    0.00 
 293   14:30   0.47   66.2    25   17.0   226     29   844.3    0.00 
 293   14:40   0.31   65.4    27   16.0   235     27   844.3    0.00 
 293   14:50   0.31   65.2    27   14.1   241     28   844.2    0.00 
 293   15:00   0.24   64.8    28   14.6   241     26   844.1    0.00 
 293   15:10   0.17   64.0    28   16.0   239     28   844.0    0.00 
 293   15:20   0.30   64.7    28   14.8   241     32   843.9    0.00 
 293   15:30   0.27   64.5    28   13.5   238     24   843.9    0.00 
 293   15:40   0.25   64.5    27   15.7   244     28   843.7    0.00 
 293   15:50   0.17   63.7    29   16.6   250     34   843.6    0.00 
 293   16:00   0.18   63.4    30   14.9   243     28   843.5    0.00 
 293   16:10   0.18   63.2    30   14.7   242     28   843.4    0.00 
 293   16:20   0.14   63.0    30   14.4   237     25   843.5    0.00 
 293   16:30   0.12   62.6    31   14.2   243     24   843.5    0.00 
 293   16:40   0.09   62.1    32   13.9   243     27   843.6    0.00 
 293   16:50   0.05   61.3    33   14.9   242     29   843.6    0.00 
 293   17:00   0.02   60.6    33   15.9   245     32   843.7    0.00 
 293   17:10   0.00   60.0    34   17.8   240     27   843.7    0.00 
 293   17:20   0.00   59.6    35   15.1   238     24   843.8    0.00 
 293   17:30   0.00   59.2    35   15.9   234     27   843.8    0.00 
 293   17:40   0.00   59.0    34   11.8   258     21   843.7    0.00 
 293   17:50   0.00   58.9    34   11.5   302     23   843.6    0.00 
 293   18:00   0.00   58.5    35    7.5   266     13   843.7    0.00 
 293   18:10   0.00   58.6    34    6.8   305     15   843.6    0.00 
 293   18:20   0.00   58.5    34    7.7   291     13   843.5    0.00 
 293   18:30   0.00   57.8    35    6.2   275     13   843.6    0.00 
 293   18:40   0.00   57.5    37    7.0   222     13   843.6    0.00 
 293   18:50   0.00   57.3    38    7.6   198     19   843.6    0.00 
 293   19:00   0.00   57.1    37   12.4   220     23   843.8    0.00 
 293   19:10   0.00   57.0    35   10.9   227     20   844.0    0.00 
 293   19:20   0.00   56.4    33   13.6   228     24   844.3    0.00 
 293   19:30   0.00   55.5    36   12.7   242     22   844.3    0.00 
 293   19:40   0.00   56.2    34   10.4   231     20   844.5    0.00 
 293   19:50   0.00   53.8    48   16.3   239     31   844.7    0.00 
 293   20:00   0.00   49.2    68   15.1   244     29   845.2    0.00 
 293   20:10   0.00   48.7    67   11.5   241     25   845.2    0.00 
 293   20:20   0.00   48.8    65   11.6   236     20   845.2    0.00 
 293   20:30   0.00   49.0    65   12.8   262     24   845.1    0.00 
 293   20:40   0.00   50.8    59   12.5   263     23   845.1    0.00 
 293   20:50   0.00   50.8    59   13.5   246     26   845.4    0.00 
 293   21:00   0.00   49.8    64   11.5   263     26   845.5    0.00 
 293   21:10   0.00   49.5    66    7.6   257     16   845.6    0.00 
 293   21:20   0.00   48.6    70    5.0   239      9   846.1    0.00 
 293   21:30   0.00   48.4    63    7.9   240     14   846.4    0.00 
 293   21:40   0.00   47.2    69   13.4   262     25   846.1    0.00 
 293   21:50   0.00   46.6    69   10.7   234     18   846.4    0.00 
 293   22:00   0.00   45.9    70   13.1   230     22   846.5    0.00 
 293   22:10   0.00   45.6    70   14.0   234     23   846.4    0.00 
 293   22:20   0.00   45.4    70   11.5   243     20   846.6    0.00 
 293   22:30   0.00   45.2    70   10.5   243     19   846.9    0.00 
 293   22:40   0.00   45.2    68   13.3   231     21   846.9    0.00 
 293   22:50   0.00   45.6    64   16.7   230     27   846.9    0.00 
 293   23:00   0.00   45.4    63   12.9   225     19   847.1    0.00 
 293   23:10   0.00   45.3    58   11.4   236     24   847.5    0.00 
 293   23:20   0.00   45.5    51   13.0   234     20   847.6    0.00 
 293   23:30   0.00   45.1    50   10.6   236     19   847.6    0.00 
 293   23:40   0.00   44.9    50   14.1   230     22   847.5    0.00 
 293   23:50   0.00   44.6    50   12.4   236     20   847.5    0.00 
 294    0:00   0.00   44.3    51   13.1   236     24   847.5    0.00 
 294    0:10   0.00   44.2    52   11.6   238     19   847.5    0.00 
 294    0:20   0.00   44.1    52   12.9   235     21   847.5    0.00 
 294    0:30   0.00   44.2    52   15.0   235     26   847.4    0.00 
 294    0:40   0.00   44.3    52   14.9   241     31   847.5    0.00 
 294    0:50   0.00   44.1    53   13.5   238     27   847.8    0.00 
 294    1:00   0.00   44.0    53   14.4   234     24   847.8    0.00 
 294    1:10   0.00   44.1    52   16.8   231     28   847.7    0.00 
 294    1:20   0.00   44.1    52   16.8   226     24   847.8    0.00 

Return to NNSC graphs page.


Western Regional Climate Center,wrcc@dri.edu